sensor_id;sensor_type;location;lat;lon;timestamp;pressure;altitude;pressure_sealevel;temperature
70123;BMP280;57489;37.404;24.920;2023-02-10T18:45:04;101647.03;;;18.78
70123;BMP280;57489;37.404;24.920;2023-02-10T18:50:06;101655.22;;;18.87
70123;BMP280;57489;37.404;24.920;2023-02-10T18:55:07;101653.31;;;19.03
70123;BMP280;57489;37.404;24.920;2023-02-10T19:00:08;101664.66;;;19.14
70123;BMP280;57489;37.404;24.920;2023-02-10T19:05:09;101657.34;;;19.40
70123;BMP280;57489;37.404;24.920;2023-02-10T19:10:09;101661.13;;;19.62
70123;BMP280;57489;37.404;24.920;2023-02-10T19:15:10;101670.44;;;19.65
70123;BMP280;57489;37.404;24.920;2023-02-10T19:20:10;101672.84;;;19.67
70123;BMP280;57489;37.404;24.920;2023-02-10T19:25:11;101673.34;;;19.69
70123;BMP280;57489;37.404;24.920;2023-02-10T19:30:11;101671.22;;;19.71
70123;BMP280;57489;37.404;24.920;2023-02-10T19:35:12;101670.88;;;19.72
70123;BMP280;57489;37.404;24.920;2023-02-10T19:40:12;101666.34;;;19.73
70123;BMP280;57489;37.404;24.920;2023-02-10T19:45:13;101665.31;;;19.74
70123;BMP280;57489;37.404;24.920;2023-02-10T19:50:13;101666.06;;;19.79
70123;BMP280;57489;37.404;24.920;2023-02-10T19:55:14;101675.19;;;20.02
70123;BMP280;57489;37.404;24.920;2023-02-10T20:00:14;101663.94;;;20.29
70123;BMP280;57489;37.404;24.920;2023-02-10T20:05:15;101665.28;;;20.51
70123;BMP280;57489;37.404;24.920;2023-02-10T20:10:16;101671.31;;;20.61
70123;BMP280;57489;37.404;24.920;2023-02-10T20:15:16;101671.50;;;20.65
70123;BMP280;57489;37.404;24.920;2023-02-10T20:20:17;101673.13;;;20.66
70123;BMP280;57489;37.404;24.920;2023-02-10T20:25:17;101655.94;;;20.72
70123;BMP280;57489;37.404;24.920;2023-02-10T20:30:17;101677.97;;;20.83
70123;BMP280;57489;37.404;24.920;2023-02-10T20:35:18;101665.41;;;21.02
70123;BMP280;57489;37.404;24.920;2023-02-10T20:40:18;101675.28;;;21.02
70123;BMP280;57489;37.404;24.920;2023-02-10T20:45:19;101663.53;;;21.21
70123;BMP280;57489;37.404;24.920;2023-02-10T20:50:20;101670.50;;;21.36
70123;BMP280;57489;37.404;24.920;2023-02-10T20:55:20;101656.84;;;21.38
70123;BMP280;57489;37.404;24.920;2023-02-10T21:00:21;101647.75;;;21.39
70123;BMP280;57489;37.404;24.920;2023-02-10T21:05:22;101657.34;;;21.40
70123;BMP280;57489;37.404;24.920;2023-02-10T21:10:22;101653.81;;;21.44
70123;BMP280;57489;37.404;24.920;2023-02-10T21:15:23;101641.81;;;21.42
70123;BMP280;57489;37.404;24.920;2023-02-10T21:20:23;101648.81;;;21.38
70123;BMP280;57489;37.404;24.920;2023-02-10T21:25:24;101657.16;;;21.36
70123;BMP280;57489;37.404;24.920;2023-02-10T21:30:24;101655.22;;;21.23
70123;BMP280;57489;37.404;24.920;2023-02-10T21:35:24;101658.75;;;21.18
70123;BMP280;57489;37.404;24.920;2023-02-10T21:40:25;101673.78;;;21.14
70123;BMP280;57489;37.404;24.920;2023-02-10T21:45:25;101664.78;;;20.91
70123;BMP280;57489;37.404;24.920;2023-02-10T21:50:26;101658.72;;;20.86
70123;BMP280;57489;37.404;24.920;2023-02-10T21:55:27;101653.81;;;20.74
70123;BMP280;57489;37.404;24.920;2023-02-10T22:00:27;101654.13;;;20.67
70123;BMP280;57489;37.404;24.920;2023-02-10T22:05:27;101658.25;;;20.60
70123;BMP280;57489;37.404;24.920;2023-02-10T22:10:28;101657.66;;;20.44
70123;BMP280;57489;37.404;24.920;2023-02-10T22:15:28;101660.53;;;20.48
70123;BMP280;57489;37.404;24.920;2023-02-10T22:20:29;101652.91;;;20.41
70123;BMP280;57489;37.404;24.920;2023-02-10T22:25:29;101650.25;;;20.41
70123;BMP280;57489;37.404;24.920;2023-02-10T22:30:30;101640.34;;;20.41
70123;BMP280;57489;37.404;24.920;2023-02-10T22:35:30;101616.91;;;20.38
70123;BMP280;57489;37.404;24.920;2023-02-10T22:40:32;101626.38;;;20.26
70123;BMP280;57489;37.404;24.920;2023-02-10T22:45:33;101630.09;;;20.30
70123;BMP280;57489;37.404;24.920;2023-02-10T22:50:34;101631.72;;;20.26
70123;BMP280;57489;37.404;24.920;2023-02-10T22:55:34;101621.66;;;20.23
70123;BMP280;57489;37.404;24.920;2023-02-10T23:00:35;101639.38;;;20.08
70123;BMP280;57489;37.404;24.920;2023-02-10T23:05:35;101639.13;;;20.10
70123;BMP280;57489;37.404;24.920;2023-02-10T23:10:35;101639.19;;;20.00
70123;BMP280;57489;37.404;24.920;2023-02-10T23:15:36;101640.22;;;20.04
70123;BMP280;57489;37.404;24.920;2023-02-10T23:20:36;101634.09;;;20.03
70123;BMP280;57489;37.404;24.920;2023-02-10T23:25:45;101638.53;;;19.89
70123;BMP280;57489;37.404;24.920;2023-02-10T23:30:46;101643.22;;;20.02
70123;BMP280;57489;37.404;24.920;2023-02-10T23:35:48;101645.78;;;19.83
70123;BMP280;57489;37.404;24.920;2023-02-10T23:40:49;101641.34;;;19.74
70123;BMP280;57489;37.404;24.920;2023-02-10T23:45:49;101637.75;;;19.88
70123;BMP280;57489;37.404;24.920;2023-02-10T23:50:50;101646.41;;;19.70
70123;BMP280;57489;37.404;24.920;2023-02-10T23:55:50;101641.47;;;19.58
